Akdere, Turkey

10:09 PM +03 on November 21, 2017 (GMT +0300)
Batumi | | Change Station

Elev 105 ft 41.61 °N, 41.60 °E | Updated 9 minutes ago

Rain
Rain
52 °F
Feels Like 52 °F
N
32
Wind Variable Wind from SW
Gusts 47 mph

Today
High -- | Low -- °F
--% Chance of Precip.
Yesterday
High -- | Low -- °F
Precip. -- in
Pressure 29.92 in
Visibility 4.3 miles
Clouds Mostly Cloudy 1600 ft
Dew Point 46 °F
Humidity 82%
Rainfall 0.00 in
Snow Depth Not available.
7:10 AM 4:52 PM
Waxing Crescent, 10% visible
METAR UGSB 211900Z 23028G41KT 7000 -SHRA BKN016CB 11/08 Q1013 R13/29//55 NOSIG
Pressure 29.92 in
Visibility 4.3 miles
Clouds Mostly Cloudy 1600 ft
Dew Point 46 °F
Humidity 82%
Rainfall 0.00 in
Snow Depth Not available.
7:10 AM 4:52 PM
Waxing Crescent, 10% visible
METAR UGSB 211900Z 23028G41KT 7000 -SHRA BKN016CB 11/08 Q1013 R13/29//55 NOSIG

Get Severe Weather Alerts

Thanks for signing up!

Be on the lookout for a verification email in your inbox.

You'll start receiving the daily forecast at 6 AM.

×

10-Day Weather Forecast

×

Almanac

Astronomy

Nov. 21, 2017 Rise Set
Actual Time
Civil Twilight
Nautical Twilight
Astronomical Twilight
Moon
Length of Visible Light
Length of Day
Tomorrow will be .
, % of the Moon is Illuminated

Today's Extremes

Country Highs Country Lows

Community

WunderPhotos

Category 6

Welcome to Category 6. This is the collective home for Weather Underground's featured writeups by Dr. Jeff Masters (right), Bob Henson (left), Chris Burt, and other regular contributors.

Nearby

Air Quality

  Air Quality AQ Index Pollutant
Not available.

Snow Depth

Station Depth Elevation

Earthquake Activity

City Distance Mag. Time & Date
Minimum magnitude displayed is 2.5.

Coastal Water Temperatures

Place Temperature

Stations

Nearby Weather Stations

Station Location Temp. Windchill Dew Point Humidity Wind Precip. Elev Updated Type